YNHE weather

Newhaven Airport
Victoria, Australia

Public forecast

Using degrees Celsius for public forecast. Weather courtesy of forecast.io.

Closest aviation weather report (METAR) to Newhaven Airport

Closest report is Avalon Airport, 49.8 nm (92.2 km) NW. Retrieved 2019/10/19 13:30 UTC (11 minutes ago):

YMAV 191330Z AUTO 29011KT 9999 // BKN064 09/07 Q1022 RF000/0010

Closest aviation forecast (TAF) to Newhaven Airport

Closest forecast is Avalon Airport, 49.8 nm (92.2 km) NW. Retrieved 2019/10/19 12:00 UTC (2 hours ago):

TAF YMAV 191120Z 1912/2012 27012KT 9999 SCT040 FM191800 27014KT 9999 BKN030 FM192300 26015G25KT 9999 BKN040 FM200800 24012KT 9999 BKN030